createdAt,value
2023-05-14T00:00:16.524Z,8.90
2023-05-14T00:01:17.056Z,8.87
2023-05-14T00:02:17.370Z,8.90
2023-05-14T00:03:17.116Z,8.96
2023-05-14T00:04:16.911Z,8.95
2023-05-14T00:05:16.636Z,8.84
2023-05-14T00:06:17.213Z,8.78
2023-05-14T00:07:16.771Z,8.75
2023-05-14T00:08:16.398Z,8.74
2023-05-14T00:09:16.981Z,8.74
2023-05-14T00:10:16.569Z,8.69
2023-05-14T00:11:17.150Z,8.71
2023-05-14T00:12:16.945Z,8.65
2023-05-14T00:13:16.501Z,8.67
2023-05-14T00:14:17.117Z,8.63
2023-05-14T00:15:16.658Z,8.61
2023-05-14T00:16:17.234Z,8.63
2023-05-14T00:17:16.889Z,8.60
2023-05-14T00:18:16.431Z,8.60
2023-05-14T00:19:16.961Z,8.54
2023-05-14T00:20:16.614Z,8.54
2023-05-14T00:21:17.221Z,8.54
2023-05-14T00:22:17.037Z,8.51
2023-05-14T00:23:16.625Z,8.51
2023-05-14T00:24:17.222Z,8.48
2023-05-14T00:25:16.783Z,8.46
2023-05-14T00:26:16.356Z,8.46
2023-05-14T00:27:16.980Z,8.37
2023-05-14T00:28:16.540Z,8.40
2023-05-14T00:29:17.090Z,8.37
2023-05-14T00:30:16.662Z,8.36
2023-05-14T00:31:17.275Z,8.36
2023-05-14T00:32:17.149Z,8.33
2023-05-14T00:33:16.718Z,8.33
2023-05-14T00:34:17.331Z,8.28
2023-05-14T00:35:16.912Z,8.26
2023-05-14T00:36:16.457Z,8.23
2023-05-14T00:37:17.015Z,8.36
2023-05-14T00:38:16.592Z,8.39
2023-05-14T00:39:17.166Z,8.33
2023-05-14T00:40:16.705Z,8.32
2023-05-14T00:41:17.239Z,8.32
2023-05-14T00:42:16.851Z,8.37
2023-05-14T00:43:16.400Z,8.30
2023-05-14T00:44:17.014Z,8.29
2023-05-14T00:45:16.543Z,8.22
2023-05-14T00:46:17.120Z,8.20
2023-05-14T00:47:16.744Z,8.23
2023-05-14T00:48:17.338Z,8.19
2023-05-14T00:49:16.938Z,8.18
2023-05-14T00:50:16.498Z,8.15
2023-05-14T00:51:17.067Z,8.13
2023-05-14T00:52:16.708Z,8.15
2023-05-14T00:53:17.259Z,8.23
2023-05-14T00:54:16.844Z,8.12
2023-05-14T00:55:16.847Z,8.01
2023-05-14T00:56:16.387Z,8.01
2023-05-14T00:57:16.987Z,8.00
2023-05-14T00:58:16.575Z,8.01
2023-05-14T00:59:17.153Z,8.08
2023-05-14T01:00:16.793Z,7.97
2023-05-14T01:01:16.405Z,7.91
2023-05-14T01:02:16.955Z,7.88
2023-05-14T01:03:16.676Z,7.95
2023-05-14T01:04:16.509Z,7.98
2023-05-14T01:05:17.118Z,7.95
2023-05-14T01:06:16.686Z,7.91
2023-05-14T01:07:17.288Z,7.90
2023-05-14T01:08:16.826Z,7.91
2023-05-14T01:09:16.374Z,7.87
2023-05-14T01:10:16.949Z,7.88
2023-05-14T01:11:16.492Z,7.88
2023-05-14T01:12:16.965Z,7.88
2023-05-14T01:13:16.506Z,7.97
2023-05-14T01:14:17.123Z,8.00
2023-05-14T01:15:16.705Z,7.94
2023-05-14T01:16:17.323Z,7.97
2023-05-14T01:17:16.961Z,7.97
2023-05-14T01:18:16.504Z,7.95
2023-05-14T01:19:17.103Z,8.00
2023-05-14T01:20:16.727Z,7.98
2023-05-14T01:21:17.257Z,8.01
2023-05-14T01:22:17.220Z,7.98
2023-05-14T01:23:16.767Z,8.09
2023-05-14T01:24:17.321Z,8.25
2023-05-14T01:25:16.858Z,8.20
2023-05-14T01:26:16.395Z,8.20
2023-05-14T01:27:16.932Z,8.23
2023-05-14T01:28:16.486Z,8.22
2023-05-14T01:29:17.080Z,8.25
2023-05-14T01:30:16.722Z,8.26
2023-05-14T01:31:17.301Z,8.35
2023-05-14T01:32:17.253Z,8.48
2023-05-14T01:33:17.109Z,8.41
2023-05-14T01:34:16.657Z,8.39
2023-05-14T01:35:17.270Z,8.43
2023-05-14T01:36:16.801Z,8.44
2023-05-14T01:37:16.370Z,8.44
2023-05-14T01:38:16.951Z,8.48
2023-05-14T01:39:16.487Z,8.47
2023-05-14T01:40:17.075Z,8.46
2023-05-14T01:41:16.603Z,8.48
2023-05-14T01:42:16.870Z,8.47
2023-05-14T01:43:16.445Z,8.48
2023-05-14T01:44:17.136Z,8.51
2023-05-14T01:45:16.700Z,8.53
2023-05-14T01:46:17.279Z,8.54
2023-05-14T01:47:16.872Z,8.57
2023-05-14T01:48:16.406Z,8.65
2023-05-14T01:49:16.941Z,8.74
2023-05-14T01:50:16.492Z,8.71
2023-05-14T01:51:17.089Z,8.68
2023-05-14T01:52:16.654Z,8.58
2023-05-14T01:53:17.195Z,8.60
2023-05-14T01:54:16.733Z,8.64
2023-05-14T01:55:17.331Z,8.68
2023-05-14T01:56:16.901Z,8.68
2023-05-14T01:57:16.438Z,8.72
2023-05-14T01:58:17.140Z,8.74
2023-05-14T01:59:16.722Z,8.74
2023-05-14T02:00:17.272Z,8.76
2023-05-14T02:01:16.945Z,8.75
2023-05-14T02:02:16.523Z,8.78
2023-05-14T02:03:17.060Z,8.79
2023-05-14T02:04:16.670Z,8.78
2023-05-14T02:05:16.455Z,8.76
2023-05-14T02:06:17.053Z,8.75
2023-05-14T02:07:16.604Z,8.75
2023-05-14T02:08:17.132Z,8.75
2023-05-14T02:09:16.702Z,8.79
2023-05-14T02:10:17.294Z,8.81
2023-05-14T02:11:16.870Z,8.84
2023-05-14T02:12:16.597Z,8.84
2023-05-14T02:13:17.157Z,8.85
2023-05-14T02:14:16.695Z,8.87
2023-05-14T02:15:17.229Z,8.91
2023-05-14T02:16:16.833Z,8.98
2023-05-14T02:17:16.448Z,8.95
2023-05-14T02:18:16.963Z,8.96
2023-05-14T02:19:16.715Z,9.01
2023-05-14T02:20:17.333Z,9.02
2023-05-14T02:21:16.895Z,9.03
2023-05-14T02:22:16.348Z,9.05
2023-05-14T02:23:16.909Z,9.06
2023-05-14T02:24:16.476Z,9.10
2023-05-14T02:25:17.036Z,9.16
2023-05-14T02:26:16.609Z,9.15
2023-05-14T02:27:17.150Z,9.15
2023-05-14T02:28:16.770Z,9.19
2023-05-14T02:29:16.343Z,9.18
2023-05-14T02:30:16.912Z,9.16
2023-05-14T02:31:16.498Z,9.18
2023-05-14T02:32:16.592Z,9.15
2023-05-14T02:33:17.299Z,9.13
2023-05-14T02:34:16.987Z,9.19
2023-05-14T02:35:16.559Z,9.19
2023-05-14T02:36:17.181Z,9.27
2023-05-14T02:37:16.755Z,9.29
2023-05-14T02:38:16.329Z,9.26
2023-05-14T02:39:16.930Z,9.29
2023-05-14T02:40:16.508Z,9.30
2023-05-14T02:41:17.075Z,9.26
2023-05-14T02:42:16.855Z,9.29
2023-05-14T02:43:16.392Z,9.33
2023-05-14T02:44:16.916Z,9.30
2023-05-14T02:45:16.522Z,9.33
2023-05-14T02:46:17.127Z,9.31
2023-05-14T02:47:16.766Z,9.36
2023-05-14T02:48:17.313Z,9.37
2023-05-14T02:49:16.873Z,9.41
2023-05-14T02:50:16.450Z,9.43
2023-05-14T02:51:17.020Z,9.43
2023-05-14T02:52:16.926Z,9.47
2023-05-14T02:53:16.487Z,9.46
2023-05-14T02:54:17.059Z,9.55
2023-05-14T02:55:16.654Z,9.59
2023-05-14T02:56:17.224Z,9.62
2023-05-14T02:57:16.777Z,9.61
2023-05-14T02:58:16.306Z,9.66
2023-05-14T02:59:16.814Z,9.64
2023-05-14T03:00:16.405Z,9.64
2023-05-14T03:01:16.709Z,9.62
2023-05-14T03:02:17.001Z,9.62
2023-05-14T03:03:16.698Z,9.62
2023-05-14T03:04:17.235Z,9.61
2023-05-14T03:05:16.829Z,9.62
2023-05-14T03:06:16.378Z,9.61
2023-05-14T03:07:16.959Z,9.66
2023-05-14T03:08:16.523Z,9.61
2023-05-14T03:09:17.092Z,9.62
2023-05-14T03:10:16.630Z,9.62
2023-05-14T03:11:17.190Z,9.61
2023-05-14T03:12:16.704Z,9.62
2023-05-14T03:13:17.260Z,9.61
2023-05-14T03:14:16.832Z,9.61
2023-05-14T03:15:16.384Z,9.64
2023-05-14T03:16:16.986Z,9.65
2023-05-14T03:17:16.612Z,9.72
2023-05-14T03:18:17.162Z,9.78
2023-05-14T03:19:16.732Z,9.75
2023-05-14T03:20:16.474Z,9.69
2023-05-14T03:21:17.057Z,9.69
2023-05-14T03:22:16.724Z,9.74
2023-05-14T03:23:17.284Z,9.75
2023-05-14T03:24:16.828Z,9.71
2023-05-14T03:25:16.406Z,9.71
2023-05-14T03:26:16.949Z,9.71
2023-05-14T03:27:16.493Z,9.69
2023-05-14T03:28:17.035Z,9.71
2023-05-14T03:29:16.589Z,9.72
2023-05-14T03:30:17.180Z,9.68
2023-05-14T03:31:16.769Z,9.69
2023-05-14T03:32:16.530Z,9.69
2023-05-14T03:33:17.084Z,9.68
2023-05-14T03:34:16.628Z,9.64
2023-05-14T03:35:17.196Z,9.62
2023-05-14T03:36:16.738Z,9.64
2023-05-14T03:37:17.292Z,9.65
2023-05-14T03:38:16.911Z,9.66
2023-05-14T03:39:16.448Z,9.65
2023-05-14T03:40:17.017Z,9.65
2023-05-14T03:41:16.551Z,9.64
2023-05-14T03:42:16.417Z,9.65
2023-05-14T03:43:16.945Z,9.68
2023-05-14T03:44:16.495Z,9.69
2023-05-14T03:45:17.064Z,9.69
2023-05-14T03:46:16.621Z,9.66
2023-05-14T03:47:17.169Z,9.72
2023-05-14T03:48:16.848Z,9.75
2023-05-14T03:49:16.586Z,9.74
2023-05-14T03:50:17.197Z,9.75
2023-05-14T03:51:16.823Z,9.75
2023-05-14T03:52:16.507Z,9.75
2023-05-14T03:53:17.087Z,9.76
2023-05-14T03:54:16.646Z,9.84
2023-05-14T03:55:17.196Z,9.82
2023-05-14T03:56:16.801Z,9.82
2023-05-14T03:57:16.364Z,9.86
2023-05-14T03:58:16.909Z,9.86
2023-05-14T03:59:16.442Z,9.89
2023-05-14T04:00:17.027Z,9.92
2023-05-14T04:01:16.583Z,9.89
2023-05-14T04:02:16.458Z,9.88
2023-05-14T04:03:17.110Z,9.92
2023-05-14T04:04:16.865Z,9.85
2023-05-14T04:05:16.477Z,9.86
2023-05-14T04:06:17.065Z,9.91
2023-05-14T04:07:16.614Z,9.92
2023-05-14T04:08:17.214Z,9.99
2023-05-14T04:09:16.769Z,9.96
2023-05-14T04:10:16.357Z,10.00
2023-05-14T04:11:16.894Z,10.03
2023-05-14T04:12:16.690Z,10.03
2023-05-14T04:13:17.241Z,10.06
2023-05-14T04:14:16.771Z,10.06
2023-05-14T04:15:17.369Z,10.06
2023-05-14T04:16:16.934Z,10.09
2023-05-14T04:17:16.576Z,10.12
2023-05-14T04:18:17.125Z,10.13
2023-05-14T04:19:16.766Z,10.14
2023-05-14T04:20:16.464Z,10.09
2023-05-14T04:21:17.044Z,10.14
2023-05-14T04:22:16.955Z,10.10
2023-05-14T04:23:16.529Z,10.16
2023-05-14T04:24:17.053Z,10.19
2023-05-14T04:25:16.693Z,10.17
2023-05-14T04:26:17.294Z,10.17
2023-05-14T04:27:16.947Z,10.20
2023-05-14T04:28:16.495Z,10.20
2023-05-14T04:29:17.035Z,10.27
2023-05-14T04:30:16.585Z,10.28
2023-05-14T04:31:17.178Z,10.34
2023-05-14T04:32:16.852Z,10.33
2023-05-14T04:33:16.436Z,10.36
2023-05-14T04:34:17.015Z,10.40
2023-05-14T04:35:16.563Z,10.41
2023-05-14T04:36:17.143Z,10.45
2023-05-14T04:37:16.690Z,10.52
2023-05-14T04:38:17.314Z,10.54
2023-05-14T04:39:16.875Z,10.60
2023-05-14T04:40:16.430Z,10.65
2023-05-14T04:41:16.989Z,10.65
2023-05-14T04:42:16.848Z,10.67
2023-05-14T04:43:16.424Z,10.76
2023-05-14T04:44:16.990Z,10.93
2023-05-14T04:45:16.561Z,10.99
2023-05-14T04:46:17.148Z,11.09
2023-05-14T04:47:16.817Z,11.10
2023-05-14T04:48:16.454Z,11.13
2023-05-14T04:49:17.006Z,11.11
2023-05-14T04:50:16.592Z,11.13
2023-05-14T04:51:17.179Z,11.16
2023-05-14T04:52:16.885Z,11.09
2023-05-14T04:53:16.463Z,11.06
2023-05-14T04:54:17.053Z,11.06
2023-05-14T04:55:16.691Z,11.00
2023-05-14T04:56:17.277Z,11.11
2023-05-14T04:57:16.848Z,11.11
2023-05-14T04:58:16.420Z,11.04
2023-05-14T04:59:16.996Z,11.06
2023-05-14T05:00:16.550Z,11.14
2023-05-14T05:01:17.162Z,11.13
2023-05-14T05:02:16.578Z,11.16
2023-05-14T05:03:17.206Z,11.16
2023-05-14T05:04:17.050Z,11.18
2023-05-14T05:05:16.721Z,11.17
2023-05-14T05:06:17.306Z,11.07
2023-05-14T05:07:16.851Z,11.06
2023-05-14T05:08:16.459Z,11.10
2023-05-14T05:09:17.029Z,11.20
2023-05-14T05:10:16.611Z,11.27
2023-05-14T05:11:17.162Z,11.31
2023-05-14T05:12:16.925Z,11.27
2023-05-14T05:13:16.457Z,11.31
2023-05-14T05:14:16.994Z,11.37
2023-05-14T05:15:16.576Z,11.35
2023-05-14T05:16:17.173Z,11.37
2023-05-14T05:17:16.964Z,11.35
2023-05-14T05:18:16.545Z,11.33
2023-05-14T05:19:17.138Z,11.48
2023-05-14T05:20:16.918Z,11.62
2023-05-14T05:21:16.508Z,11.66
2023-05-14T05:22:16.382Z,11.79
2023-05-14T05:23:16.935Z,11.97
2023-05-14T05:24:16.478Z,11.97
2023-05-14T05:25:17.062Z,12.16
2023-05-14T05:26:16.645Z,12.38
2023-05-14T05:27:17.279Z,12.41
2023-05-14T05:28:16.826Z,12.32
2023-05-14T05:29:16.382Z,12.23
2023-05-14T05:30:16.945Z,12.16
2023-05-14T05:31:18.299Z,12.12
2023-05-14T05:32:17.159Z,12.04
2023-05-14T05:33:16.721Z,12.00
2023-05-14T05:34:17.260Z,12.01
2023-05-14T05:35:16.815Z,12.04
2023-05-14T05:36:16.371Z,12.01
2023-05-14T05:37:16.921Z,12.03
2023-05-14T05:38:16.464Z,12.17
2023-05-14T05:39:17.021Z,12.14
2023-05-14T05:40:16.582Z,12.19
2023-05-14T05:41:17.131Z,12.28
2023-05-14T05:42:16.694Z,12.49
2023-05-14T05:43:17.280Z,12.52
2023-05-14T05:44:16.840Z,12.51
2023-05-14T05:45:16.414Z,12.52
2023-05-14T05:46:16.973Z,12.52
2023-05-14T05:47:16.648Z,12.70
2023-05-14T05:48:16.317Z,13.06
2023-05-14T05:49:16.877Z,13.28
2023-05-14T05:50:17.260Z,13.38
2023-05-14T05:51:16.345Z,13.34
2023-05-14T05:52:16.574Z,13.69
2023-05-14T05:53:17.126Z,13.87
2023-05-14T05:54:16.703Z,14.14
2023-05-14T05:55:17.272Z,14.10
2023-05-14T05:56:16.833Z,14.18
2023-05-14T05:57:16.375Z,14.17
2023-05-14T05:58:16.972Z,14.15
2023-05-14T05:59:16.612Z,14.25
2023-05-14T06:00:17.175Z,14.08
2023-05-14T06:01:16.727Z,14.04
2023-05-14T06:02:16.951Z,14.01
2023-05-14T06:03:16.644Z,14.17
2023-05-14T06:04:17.284Z,14.28
2023-05-14T06:05:16.944Z,14.74
2023-05-14T06:06:16.613Z,14.76
2023-05-14T06:07:17.167Z,14.79
2023-05-14T06:08:16.751Z,14.49
2023-05-14T06:09:17.297Z,14.49
2023-05-14T06:10:16.862Z,14.45
2023-05-14T06:11:16.447Z,14.73
2023-05-14T06:12:16.665Z,14.51
2023-05-14T06:13:17.236Z,14.42
2023-05-14T06:14:16.812Z,14.56
2023-05-14T06:15:16.356Z,14.29
2023-05-14T06:16:16.975Z,14.05
2023-05-14T06:17:16.603Z,13.70
2023-05-14T06:18:17.201Z,13.89
2023-05-14T06:19:16.766Z,14.00
2023-05-14T06:20:16.601Z,14.12
2023-05-14T06:21:17.225Z,14.12
2023-05-14T06:22:16.745Z,14.56
2023-05-14T06:23:17.298Z,14.43
2023-05-14T06:24:16.903Z,14.70
2023-05-14T06:25:16.452Z,14.53
2023-05-14T06:26:17.001Z,14.65
2023-05-14T06:27:16.583Z,14.74
2023-05-14T06:28:17.116Z,14.77
2023-05-14T06:29:16.692Z,14.86
2023-05-14T06:30:17.262Z,15.08
2023-05-14T06:31:16.836Z,14.84
2023-05-14T06:32:16.544Z,14.38
2023-05-14T06:33:18.733Z,14.03
2023-05-14T06:34:17.046Z,14.27
2023-05-14T06:35:16.615Z,13.93
2023-05-14T06:36:17.158Z,13.97
2023-05-14T06:37:16.694Z,14.07
2023-05-14T06:38:17.240Z,14.28
2023-05-14T06:39:16.797Z,14.01
2023-05-14T06:40:16.367Z,13.97
2023-05-14T06:41:16.944Z,13.97
2023-05-14T06:42:16.779Z,14.01
2023-05-14T06:43:17.339Z,14.05
2023-05-14T06:44:16.880Z,14.10
2023-05-14T06:45:16.450Z,14.05
2023-05-14T06:46:17.008Z,14.12
2023-05-14T06:47:16.605Z,14.39
2023-05-14T06:48:17.167Z,13.93
2023-05-14T06:49:17.004Z,13.93
2023-05-14T06:50:16.819Z,13.92
2023-05-14T06:51:16.396Z,14.15
2023-05-14T06:52:17.149Z,14.28
2023-05-14T06:53:16.698Z,14.39
2023-05-14T06:54:17.221Z,14.04
2023-05-14T06:55:16.768Z,14.11
2023-05-14T06:56:17.355Z,14.04
2023-05-14T06:57:16.911Z,14.07
2023-05-14T06:58:16.474Z,13.86
2023-05-14T06:59:17.021Z,13.97
2023-05-14T07:00:16.713Z,14.22
2023-05-14T07:01:16.378Z,14.55
2023-05-14T07:02:17.148Z,14.74
2023-05-14T07:03:16.693Z,14.38
2023-05-14T07:04:17.300Z,14.12
2023-05-14T07:05:16.906Z,14.29
2023-05-14T07:06:16.463Z,14.38
2023-05-14T07:07:16.980Z,13.87
2023-05-14T07:08:16.548Z,14.04
2023-05-14T07:09:17.103Z,14.08
2023-05-14T07:10:16.664Z,14.15
2023-05-14T07:11:17.200Z,14.31
2023-05-14T07:12:16.998Z,14.35
2023-05-14T07:13:16.553Z,14.29
2023-05-14T07:14:17.120Z,14.29
2023-05-14T07:15:16.697Z,14.79
2023-05-14T07:16:17.265Z,15.02
2023-05-14T07:17:16.871Z,15.38
2023-05-14T07:18:16.757Z,15.07
2023-05-14T07:19:16.488Z,14.77
2023-05-14T07:20:17.182Z,15.94
2023-05-14T07:21:16.736Z,16.28
2023-05-14T07:22:17.072Z,16.28
2023-05-14T07:23:18.560Z,16.84
2023-05-14T07:24:16.423Z,16.80
2023-05-14T07:25:17.031Z,16.29
2023-05-14T07:26:16.596Z,16.68
2023-05-14T07:27:17.160Z,16.94
2023-05-14T07:28:16.758Z,16.35
2023-05-14T07:29:16.369Z,15.57
2023-05-14T07:30:16.988Z,15.36
2023-05-14T07:31:17.234Z,15.43
2023-05-14T07:32:17.198Z,15.87
2023-05-14T07:33:16.784Z,16.00
2023-05-14T07:34:16.373Z,15.84
2023-05-14T07:35:16.952Z,15.87
2023-05-14T07:36:16.536Z,15.43
2023-05-14T07:37:17.116Z,15.63
2023-05-14T07:38:16.638Z,15.92
2023-05-14T07:39:17.180Z,15.55
2023-05-14T07:40:16.760Z,15.59
2023-05-14T07:41:16.319Z,15.32
2023-05-14T07:42:24.893Z,14.65
2023-05-14T07:43:17.241Z,14.66
2023-05-14T07:44:16.778Z,14.40
2023-05-14T07:45:16.413Z,14.38
2023-05-14T07:46:16.960Z,14.69
2023-05-14T07:47:16.538Z,14.79
2023-05-14T07:48:17.291Z,14.51
2023-05-14T07:49:16.963Z,14.48
2023-05-14T07:50:16.505Z,14.62
2023-05-14T07:51:17.089Z,14.83
2023-05-14T07:52:16.897Z,14.84
2023-05-14T07:53:16.497Z,14.84
2023-05-14T07:54:17.111Z,14.86
2023-05-14T07:55:16.648Z,14.52
2023-05-14T07:56:17.202Z,14.55
2023-05-14T07:57:16.777Z,14.35
2023-05-14T07:58:16.407Z,14.43
2023-05-14T07:59:16.935Z,14.22
2023-05-14T08:00:16.485Z,13.97
2023-05-14T08:01:17.076Z,14.00
2023-05-14T08:02:17.124Z,13.94
2023-05-14T08:03:17.170Z,13.90
2023-05-14T08:04:16.901Z,13.96
2023-05-14T08:05:16.549Z,14.00
2023-05-14T08:06:17.154Z,13.94
2023-05-14T08:07:16.724Z,13.82
2023-05-14T08:08:17.293Z,13.79
2023-05-14T08:09:16.874Z,13.84
2023-05-14T08:10:16.449Z,13.67
2023-05-14T08:11:17.033Z,13.69
2023-05-14T08:12:16.744Z,13.80
2023-05-14T08:13:17.284Z,13.60
2023-05-14T08:14:16.838Z,13.76
2023-05-14T08:15:16.378Z,13.79
2023-05-14T08:16:16.945Z,13.53
2023-05-14T08:17:16.590Z,13.62
2023-05-14T08:18:17.291Z,13.66
2023-05-14T08:19:16.958Z,13.52
2023-05-14T08:20:16.686Z,13.66
2023-05-14T08:21:17.253Z,13.72
2023-05-14T08:22:17.199Z,13.83
2023-05-14T08:23:16.762Z,13.98
2023-05-14T08:24:16.375Z,14.03
2023-05-14T08:25:16.943Z,13.86
2023-05-14T08:26:16.545Z,13.86
2023-05-14T08:27:17.078Z,13.79
2023-05-14T08:28:16.613Z,13.89
2023-05-14T08:29:17.188Z,13.96
2023-05-14T08:30:16.744Z,13.82
2023-05-14T08:31:17.312Z,13.83
2023-05-14T08:32:23.089Z,13.67
2023-05-14T08:33:16.763Z,13.66
2023-05-14T08:34:17.362Z,13.75
2023-05-14T08:35:16.914Z,13.65
2023-05-14T08:36:16.453Z,13.67
2023-05-14T08:37:17.005Z,13.76
2023-05-14T08:38:16.551Z,13.79
2023-05-14T08:39:17.076Z,13.70
2023-05-14T08:40:16.629Z,13.67
2023-05-14T08:41:17.171Z,13.52
2023-05-14T08:42:17.167Z,13.60
2023-05-14T08:43:16.697Z,13.63
2023-05-14T08:44:17.254Z,13.79
2023-05-14T08:45:16.857Z,13.83
2023-05-14T08:46:16.460Z,13.70
2023-05-14T08:47:17.024Z,13.72
2023-05-14T08:48:16.617Z,13.73
2023-05-14T08:49:16.366Z,13.76
2023-05-14T08:50:16.963Z,13.50
2023-05-14T08:51:16.552Z,13.55
2023-05-14T08:52:16.354Z,13.70
2023-05-14T08:53:16.903Z,13.93
2023-05-14T08:54:16.468Z,13.70
2023-05-14T08:55:17.026Z,13.72
2023-05-14T08:56:16.595Z,13.70
2023-05-14T08:57:17.144Z,13.77
2023-05-14T08:58:16.715Z,13.89
2023-05-14T08:59:17.301Z,13.98
2023-05-14T09:00:16.841Z,13.92
2023-05-14T09:01:16.455Z,13.96
2023-05-14T09:02:16.436Z,13.84
2023-05-14T09:03:17.008Z,13.82
2023-05-14T09:04:16.756Z,13.79
2023-05-14T09:05:16.500Z,13.67
2023-05-14T09:06:17.047Z,13.92
2023-05-14T09:07:16.596Z,14.01
2023-05-14T09:08:17.177Z,14.12
2023-05-14T09:09:16.709Z,13.90
2023-05-14T09:10:17.280Z,14.05
2023-05-14T09:11:16.819Z,14.15
2023-05-14T09:12:16.360Z,14.22
2023-05-14T09:13:16.909Z,13.93
2023-05-14T09:14:16.462Z,14.03
2023-05-14T09:15:17.086Z,14.28
2023-05-14T09:16:16.673Z,14.40
2023-05-14T09:17:17.293Z,14.36
2023-05-14T09:18:16.865Z,14.07
2023-05-14T09:19:16.546Z,14.14
2023-05-14T09:20:16.409Z,14.17
2023-05-14T09:21:16.955Z,14.04
2023-05-14T09:22:17.088Z,14.07
2023-05-14T09:23:16.661Z,13.89
2023-05-14T09:24:17.189Z,13.75
2023-05-14T09:25:16.749Z,13.87
2023-05-14T09:26:16.345Z,14.08
2023-05-14T09:27:16.934Z,14.15
2023-05-14T09:28:16.498Z,14.25
2023-05-14T09:29:17.079Z,14.27
2023-05-14T09:30:16.628Z,14.28
2023-05-14T09:31:17.207Z,14.28
2023-05-14T09:32:16.347Z,14.10
2023-05-14T09:33:16.924Z,14.03
2023-05-14T09:34:16.564Z,14.15
2023-05-14T09:35:17.203Z,14.15
2023-05-14T09:36:16.450Z,14.25
2023-05-14T09:37:16.986Z,14.38
2023-05-14T09:38:16.569Z,14.53
2023-05-14T09:39:17.185Z,14.74
2023-05-14T09:40:16.766Z,14.83
2023-05-14T09:41:16.429Z,15.07
2023-05-14T09:42:16.822Z,15.22
2023-05-14T09:43:16.363Z,15.25
2023-05-14T09:44:16.959Z,15.29
2023-05-14T09:45:16.546Z,15.36
2023-05-14T09:46:17.085Z,15.45
2023-05-14T09:47:16.716Z,15.55
2023-05-14T09:48:16.404Z,15.69
2023-05-14T09:49:16.993Z,15.70
2023-05-14T09:50:16.524Z,15.66
2023-05-14T09:51:17.078Z,15.49
2023-05-14T09:52:17.083Z,15.63
2023-05-14T09:53:16.642Z,15.62
2023-05-14T09:54:17.194Z,16.02
2023-05-14T09:55:16.731Z,16.40
2023-05-14T09:56:17.280Z,16.56
2023-05-14T09:57:16.852Z,16.50
2023-05-14T09:58:16.418Z,15.76
2023-05-14T09:59:16.980Z,15.91
2023-05-14T10:00:16.531Z,16.05
2023-05-14T10:01:17.251Z,16.35
2023-05-14T10:02:16.962Z,16.60
2023-05-14T10:03:18.060Z,16.97
2023-05-14T10:04:16.593Z,17.44
2023-05-14T10:05:17.202Z,17.44
2023-05-14T10:06:16.753Z,17.74
2023-05-14T10:07:17.302Z,18.11
2023-05-14T10:08:16.922Z,17.85
2023-05-14T10:09:16.487Z,18.01
2023-05-14T10:10:17.194Z,17.78
2023-05-14T10:11:16.848Z,17.76
2023-05-14T10:12:16.532Z,17.77
2023-05-14T10:13:17.144Z,18.11
2023-05-14T10:14:16.688Z,17.84
2023-05-14T10:15:17.266Z,17.63
2023-05-14T10:16:16.810Z,16.99
2023-05-14T10:17:16.404Z,17.42
2023-05-14T10:18:17.109Z,17.57
2023-05-14T10:19:16.830Z,17.43
2023-05-14T10:20:16.546Z,17.66
2023-05-14T10:21:17.176Z,17.52
2023-05-14T10:22:16.883Z,17.19
2023-05-14T10:23:16.456Z,17.39
2023-05-14T10:24:17.084Z,17.39
2023-05-14T10:25:16.686Z,17.56
2023-05-14T10:26:17.252Z,17.36
2023-05-14T10:27:16.820Z,17.33
2023-05-14T10:28:16.373Z,17.08
2023-05-14T10:29:16.926Z,17.05
2023-05-14T10:30:16.506Z,17.14
2023-05-14T10:31:17.110Z,16.91
2023-05-14T10:32:16.902Z,17.23
2023-05-14T10:33:16.507Z,17.74
2023-05-14T10:34:17.314Z,18.12
2023-05-14T10:35:16.887Z,18.16
2023-05-14T10:36:16.511Z,18.20
2023-05-14T10:37:17.078Z,18.27
2023-05-14T10:38:16.668Z,18.06
2023-05-14T10:39:17.213Z,17.92
2023-05-14T10:40:16.748Z,17.39
2023-05-14T10:41:17.274Z,17.60
2023-05-14T10:42:17.305Z,17.27
2023-05-14T10:43:16.855Z,16.88
2023-05-14T10:44:16.432Z,16.90
2023-05-14T10:45:17.014Z,16.99
2023-05-14T10:46:16.577Z,16.95
2023-05-14T10:47:17.265Z,16.64
2023-05-14T10:48:16.918Z,16.31
2023-05-14T10:49:19.316Z,16.37
2023-05-14T10:50:16.782Z,16.80
2023-05-14T10:51:16.357Z,16.95
2023-05-14T10:52:17.209Z,17.09
2023-05-14T10:53:16.800Z,17.42
2023-05-14T10:54:16.362Z,17.29
2023-05-14T10:55:16.944Z,17.11
2023-05-14T10:56:16.523Z,17.21
2023-05-14T10:57:17.082Z,17.37
2023-05-14T10:58:16.610Z,17.53
2023-05-14T10:59:17.187Z,17.73
2023-05-14T11:00:16.738Z,17.67
2023-05-14T11:01:17.313Z,17.94
2023-05-14T11:02:17.220Z,18.13
2023-05-14T11:03:16.970Z,18.13
2023-05-14T11:04:16.634Z,18.16
2023-05-14T11:05:16.412Z,18.40
2023-05-14T11:06:16.972Z,18.57
2023-05-14T11:07:16.556Z,18.60
2023-05-14T11:08:17.139Z,18.08
2023-05-14T11:09:16.702Z,18.01
2023-05-14T11:10:17.290Z,18.29
2023-05-14T11:11:16.887Z,18.44
2023-05-14T11:12:16.674Z,18.58
2023-05-14T11:13:17.264Z,18.91
2023-05-14T11:14:16.807Z,19.22
2023-05-14T11:15:16.387Z,19.02
2023-05-14T11:17:16.437Z,19.19
2023-05-14T11:18:17.146Z,18.51
2023-05-14T11:19:16.773Z,18.49
2023-05-14T11:20:16.490Z,18.79
2023-05-14T11:21:17.144Z,19.10
2023-05-14T11:22:16.829Z,19.23
2023-05-14T11:23:16.389Z,19.31
2023-05-14T11:24:16.962Z,19.13
2023-05-14T11:25:16.518Z,19.23
2023-05-14T11:26:18.291Z,19.17
2023-05-14T11:27:17.009Z,19.30
2023-05-14T11:28:16.557Z,19.56
2023-05-14T11:29:17.131Z,19.51
2023-05-14T11:30:16.752Z,19.13
2023-05-14T11:31:16.588Z,19.30
2023-05-14T11:32:17.267Z,19.29
2023-05-14T11:33:16.831Z,19.19
2023-05-14T11:34:16.573Z,19.51
2023-05-14T11:35:17.154Z,19.51
2023-05-14T11:36:16.705Z,19.06
2023-05-14T11:37:17.250Z,18.96
2023-05-14T11:38:16.827Z,18.98
2023-05-14T11:39:16.436Z,18.86
2023-05-14T11:40:17.092Z,18.98
2023-05-14T11:41:16.851Z,18.82
2023-05-14T11:42:16.803Z,18.92
2023-05-14T11:43:16.330Z,19.03
2023-05-14T11:44:16.895Z,18.89
2023-05-14T11:45:16.448Z,18.94
2023-05-14T11:46:17.008Z,19.14
2023-05-14T11:47:16.702Z,18.79
2023-05-14T11:48:17.242Z,18.92
2023-05-14T11:49:16.775Z,19.13
2023-05-14T11:50:17.328Z,19.02
2023-05-14T11:51:16.885Z,19.03
2023-05-14T11:52:16.752Z,19.03
2023-05-14T11:53:17.327Z,19.01
2023-05-14T11:54:16.868Z,19.02
2023-05-14T11:55:16.437Z,18.86
2023-05-14T11:56:16.999Z,18.61
2023-05-14T11:57:16.546Z,18.86
2023-05-14T11:58:17.123Z,18.86
2023-05-14T11:59:16.652Z,19.12
2023-05-14T12:00:17.238Z,18.85
2023-05-14T12:01:16.796Z,19.01
2023-05-14T12:02:16.599Z,19.34
2023-05-14T12:03:17.368Z,19.51
2023-05-14T12:04:17.274Z,19.46
2023-05-14T12:05:16.943Z,19.50
2023-05-14T12:06:16.521Z,19.25
2023-05-14T12:07:17.045Z,19.33
2023-05-14T12:08:16.619Z,19.09
2023-05-14T12:09:17.211Z,19.43
2023-05-14T12:10:16.746Z,19.36
2023-05-14T12:11:17.343Z,19.40
2023-05-14T12:12:16.939Z,19.17
2023-05-14T12:13:16.486Z,18.64
2023-05-14T12:14:17.075Z,18.84
2023-05-14T12:15:16.632Z,19.22
2023-05-14T12:16:17.263Z,19.43
2023-05-14T12:17:17.064Z,19.09
2023-05-14T12:18:23.741Z,19.06
2023-05-14T12:19:16.758Z,19.10
2023-05-14T12:20:16.401Z,19.14
2023-05-14T12:21:16.965Z,18.99
2023-05-14T12:22:16.729Z,18.82
2023-05-14T12:23:16.338Z,18.79
2023-05-14T12:24:16.905Z,18.43
2023-05-14T12:25:16.482Z,18.44
2023-05-14T12:26:17.050Z,18.51
2023-05-14T12:27:16.631Z,18.32
2023-05-14T12:28:17.198Z,18.13
2023-05-14T12:29:16.760Z,17.95
2023-05-14T12:30:21.562Z,17.95
2023-05-14T12:31:16.785Z,17.70
2023-05-14T12:32:16.800Z,17.49
2023-05-14T12:33:16.346Z,17.35
2023-05-14T12:34:16.898Z,17.43
2023-05-14T12:35:16.462Z,17.19
2023-05-14T12:36:21.601Z,17.42
2023-05-14T12:37:16.927Z,17.66
2023-05-14T12:38:16.475Z,17.99
2023-05-14T12:39:17.052Z,18.13
2023-05-14T12:40:16.615Z,17.76
2023-05-14T12:41:17.155Z,17.73
2023-05-14T12:42:16.912Z,17.76
2023-05-14T12:43:16.499Z,17.98
2023-05-14T12:44:17.136Z,18.30
2023-05-14T12:45:16.695Z,18.08
2023-05-14T12:46:17.310Z,17.97
2023-05-14T12:47:16.970Z,17.67
2023-05-14T12:48:16.666Z,18.02
2023-05-14T12:49:17.220Z,18.09
2023-05-14T12:50:16.786Z,18.27
2023-05-14T12:51:16.361Z,18.37
2023-05-14T12:52:25.909Z,18.34
2023-05-14T12:53:17.048Z,18.37
2023-05-14T12:54:16.588Z,18.42
2023-05-14T12:55:17.172Z,18.51
2023-05-14T12:56:16.733Z,18.81
2023-05-14T12:57:17.303Z,18.79
2023-05-14T12:58:16.850Z,18.40
2023-05-14T12:59:16.365Z,18.42
2023-05-14T13:00:16.977Z,18.39
2023-05-14T13:01:16.622Z,18.53